Time;durP1;ratioP1;P1;durP2;ratioP2;P2;SDS_P1;SDS_P2;PMS_P1;PMS_P2;Temp;Humidity;BMP_temperature;BMP_pressure;BME280_temperature;BME280_humidity;BME280_pressure;Samples;Min_cycle;Max_cycle;Signal;HPM_P1;HPM_P2
2020/12/19 00:00:54;;;;;;;102.27;51.00;;;;;;;0.08;76.12;99992.63;2264048;79;21090;-78
2020/12/19 00:03:55;;;;;;;105.77;50.27;;;;;;;0.10;76.20;99987.21;2263790;79;21328;-76
2020/12/19 00:06:56;;;;;;;100.97;53.30;;;;;;;0.13;76.15;99988.71;2263402;79;21275;-76
2020/12/19 00:09:58;;;;;;;101.20;51.13;;;;;;;0.16;75.97;99990.61;2263657;79;21133;-76
2020/12/19 00:13:00;;;;;;;112.37;55.77;;;;;;;0.16;75.94;99985.08;2263171;79;21138;-77
2020/12/19 00:16:01;;;;;;;96.70;49.87;;;;;;;0.13;75.92;99983.58;2263330;79;21224;-76
2020/12/19 00:19:05;;;;;;;103.40;51.93;;;;;;;0.08;75.76;99984.03;2263374;79;21161;-76
2020/12/19 00:22:05;;;;;;;102.30;49.90;;;;;;;0.03;75.77;99986.67;2262132;79;21318;-76
2020/12/19 00:25:06;;;;;;;103.10;51.73;;;;;;;-0.02;75.81;99987.20;2263693;79;21153;-77
2020/12/19 00:28:07;;;;;;;103.40;51.47;;;;;;;-0.03;75.80;99984.52;2264250;79;21113;-76
2020/12/19 00:31:08;;;;;;;98.53;51.63;;;;;;;-0.06;75.89;99980.06;2264064;79;21142;-76
2020/12/19 00:34:10;;;;;;;114.97;53.23;;;;;;;-0.07;75.76;99988.55;2264596;79;21126;-77
2020/12/19 00:37:11;;;;;;;99.57;50.00;;;;;;;-0.09;75.85;99991.39;2264139;79;21274;-77
2020/12/19 00:40:12;;;;;;;96.77;49.17;;;;;;;-0.12;75.69;99986.05;2263488;79;21315;-75
2020/12/19 00:43:13;;;;;;;95.67;49.47;;;;;;;-0.15;75.65;99978.13;2263821;79;21098;-78
2020/12/19 00:46:14;;;;;;;102.17;51.13;;;;;;;-0.14;75.76;99978.63;2263821;79;21264;-77
2020/12/19 00:49:15;;;;;;;104.10;51.00;;;;;;;-0.10;75.80;99983.59;2263097;79;21309;-77
2020/12/19 00:52:16;;;;;;;100.00;50.87;;;;;;;-0.07;75.70;99977.39;2262783;79;21224;-77
2020/12/19 00:55:17;;;;;;;100.60;49.03;;;;;;;-0.06;75.49;99971.47;2264216;79;21110;-77
2020/12/19 00:58:18;;;;;;;100.70;50.87;;;;;;;-0.07;75.57;99973.14;2264356;79;21506;-77
2020/12/19 01:01:22;;;;;;;96.23;50.83;;;;;;;-0.05;75.55;99974.54;2264225;79;21236;-77
2020/12/19 01:04:23;;;;;;;92.73;47.97;;;;;;;-0.04;75.41;99966.05;2263403;79;21255;-76
2020/12/19 01:07:24;;;;;;;111.37;52.43;;;;;;;-0.04;75.54;99963.09;2264641;79;21508;-80
2020/12/19 01:10:25;;;;;;;106.17;49.67;;;;;;;-0.03;75.65;99963.59;2262975;79;21236;-77
2020/12/19 01:13:27;;;;;;;101.70;48.97;;;;;;;-0.05;75.70;99967.73;2264184;79;21279;-76
2020/12/19 01:16:28;;;;;;;106.20;49.83;;;;;;;-0.04;75.77;99974.65;2265046;79;21367;-77
2020/12/19 01:19:29;;;;;;;99.57;45.60;;;;;;;0.01;75.76;99980.53;2263381;79;21963;-78
2020/12/19 01:22:30;;;;;;;89.63;46.03;;;;;;;-0.03;75.73;99977.71;2261796;79;21081;-77
2020/12/19 01:25:31;;;;;;;99.73;45.27;;;;;;;-0.06;75.87;99978.78;2263881;79;21252;-76
2020/12/19 01:28:32;;;;;;;94.97;46.70;;;;;;;-0.04;75.98;99972.08;2263630;79;21513;-76
2020/12/19 01:31:33;;;;;;;96.53;44.63;;;;;;;-0.03;75.89;99976.43;2262497;79;21290;-77
2020/12/19 01:34:34;;;;;;;97.17;48.10;;;;;;;-0.02;75.88;99992.33;2262994;79;21252;-76
2020/12/19 01:37:35;;;;;;;90.03;43.23;;;;;;;0.07;76.02;99993.80;2262974;79;21522;-76
2020/12/19 01:40:36;;;;;;;96.77;45.73;;;;;;;0.11;75.95;99997.09;2263278;79;21244;-76
2020/12/19 01:43:37;;;;;;;92.67;42.27;;;;;;;0.16;75.97;99990.61;2263433;79;21114;-77
2020/12/19 01:46:38;;;;;;;83.03;40.67;;;;;;;0.19;75.88;99988.25;2264294;79;21158;-76
2020/12/19 01:49:39;;;;;;;104.03;41.30;;;;;;;0.21;75.97;99980.27;2264495;79;21518;-77
2020/12/19 01:52:40;;;;;;;95.83;43.00;;;;;;;0.22;75.96;99976.52;2264330;79;21109;-76
2020/12/19 01:55:42;;;;;;;76.63;39.00;;;;;;;0.24;75.93;99970.21;2264079;79;21236;-76
2020/12/19 01:58:43;;;;;;;92.67;41.93;;;;;;;0.22;75.78;99967.92;2263317;79;21228;-76
2020/12/19 02:01:44;;;;;;;85.17;39.13;;;;;;;0.21;75.86;99964.47;2263239;79;21108;-77
2020/12/19 02:04:45;;;;;;;80.90;39.63;;;;;;;0.18;75.76;99959.11;2263476;79;21277;-76
2020/12/19 02:07:46;;;;;;;81.43;36.53;;;;;;;0.19;75.89;99951.02;2263667;79;21502;-76
2020/12/19 02:10:47;;;;;;;84.30;36.97;;;;;;;0.20;75.82;99956.27;2262764;79;21236;-76
2020/12/19 02:13:48;;;;;;;72.93;34.33;;;;;;;0.21;75.85;99953.30;2262713;79;21138;-76
2020/12/19 02:16:49;;;;;;;87.43;38.13;;;;;;;0.19;75.81;99936.51;2262945;79;21248;-77
2020/12/19 02:19:51;;;;;;;74.43;34.67;;;;;;;0.20;75.91;99938.68;2264135;79;21399;-76
2020/12/19 02:22:52;;;;;;;84.20;35.33;;;;;;;0.23;76.08;99939.78;2264247;79;21235;-76
2020/12/19 02:25:53;;;;;;;75.77;34.33;;;;;;;0.26;75.88;99939.11;2263124;79;21276;-76
2020/12/19 02:28:54;;;;;;;84.73;36.97;;;;;;;0.20;75.87;99935.72;2263378;79;21480;-76
2020/12/19 02:31:55;;;;;;;79.90;35.03;;;;;;;0.20;75.93;99936.11;2264645;79;21224;-77
2020/12/19 02:35:01;;;;;;;89.67;35.50;;;;;;;0.19;75.94;99935.61;2264516;79;21224;-77
2020/12/19 02:38:01;;;;;;;81.17;33.80;;;;;;;0.20;76.03;99930.98;2264455;79;21244;-76
2020/12/19 02:41:02;;;;;;;76.23;35.20;;;;;;;0.21;76.06;99933.66;2264233;79;21232;-78
2020/12/19 02:44:03;;;;;;;87.37;34.33;;;;;;;0.20;76.14;99929.30;2263558;79;21236;-76
2020/12/19 02:47:04;;;;;;;94.50;36.37;;;;;;;0.22;76.19;99930.69;2264022;79;21253;-77
2020/12/19 02:50:06;;;;;;;67.43;32.93;;;;;;;0.20;76.14;99923.27;2264622;79;21227;-77
2020/12/19 02:53:07;;;;;;;80.10;32.70;;;;;;;0.17;76.25;99925.63;2263610;79;21499;-77
2020/12/19 02:56:08;;;;;;;107.77;36.10;;;;;;;0.22;76.52;99925.16;2262251;79;21222;-77
2020/12/19 02:59:09;;;;;;;80.67;33.23;;;;;;;0.28;76.47;99924.30;2262975;79;21360;-76
2020/12/19 03:02:11;;;;;;;81.40;32.07;;;;;;;0.29;76.29;99919.67;2262755;79;21649;-76
2020/12/19 03:05:12;;;;;;;103.23;29.93;;;;;;;0.31;76.38;99917.20;2261251;79;21585;-77
2020/12/19 03:08:13;;;;;;;64.10;28.97;;;;;;;0.29;76.32;99913.64;2261974;79;21243;-76
2020/12/19 03:11:14;;;;;;;64.37;33.30;;;;;;;0.30;76.42;99913.74;2263065;79;21252;-76
2020/12/19 03:14:15;;;;;;;84.03;30.77;;;;;;;0.38;76.57;99908.24;2263755;79;21239;-76
2020/12/19 03:17:16;;;;;;;96.13;28.90;;;;;;;0.40;76.45;99911.80;2264620;79;21110;-76
2020/12/19 03:20:17;;;;;;;62.97;26.77;;;;;;;0.39;76.29;99907.06;2264359;79;21229;-76
2020/12/19 03:23:18;;;;;;;106.63;31.77;;;;;;;0.34;76.39;99908.42;2264612;79;21086;-76
2020/12/19 03:26:19;;;;;;;75.20;29.13;;;;;;;0.32;76.54;99901.01;2264703;79;21276;-76
2020/12/19 03:29:23;;;;;;;66.43;29.93;;;;;;;0.33;76.68;99902.79;2264778;79;21359;-77
2020/12/19 03:32:24;;;;;;;78.17;32.47;;;;;;;0.34;76.75;99911.00;2264871;79;21116;-77
2020/12/19 03:35:25;;;;;;;69.27;31.10;;;;;;;0.39;76.77;99897.19;2264485;79;21247;-77
2020/12/19 03:38:26;;;;;;;80.67;32.70;;;;;;;0.45;76.75;99898.48;2264446;79;21228;-76
2020/12/19 03:41:27;;;;;;;109.50;35.30;;;;;;;0.48;76.72;99896.13;2264851;79;21121;-76
2020/12/19 03:44:28;;;;;;;66.93;31.60;;;;;;;0.51;76.74;99892.88;2264834;79;21146;-77
2020/12/19 03:47:30;;;;;;;65.87;29.77;;;;;;;0.50;76.58;99891.09;2264494;79;21338;-77
2020/12/19 03:50:31;;;;;;;72.67;33.30;;;;;;;0.51;76.41;99891.20;2264364;79;21426;-77
2020/12/19 03:53:32;;;;;;;95.23;36.20;;;;;;;0.48;76.58;99887.53;2264494;79;21374;-77
2020/12/19 03:56:33;;;;;;;104.70;35.17;;;;;;;0.52;76.68;99887.84;2264664;79;21343;-77
2020/12/19 03:59:34;;;;;;;95.30;32.20;;;;;;;0.58;76.79;99886.97;2264399;79;21114;-77
2020/12/19 04:02:35;;;;;;;81.73;31.00;;;;;;;0.60;76.70;99881.94;2264601;79;21129;-77
2020/12/19 04:05:36;;;;;;;81.43;36.63;;;;;;;0.60;76.70;99885.39;2264577;79;21177;-77
2020/12/19 04:08:37;;;;;;;100.00;38.83;;;;;;;0.60;76.63;99878.08;2264591;79;21109;-77
2020/12/19 04:11:38;;;;;;;107.63;35.90;;;;;;;0.58;76.66;99884.80;2264158;79;21129;-78
2020/12/19 04:14:40;;;;;;;129.90;40.10;;;;;;;0.59;76.61;99888.75;2261297;79;21283;-78
2020/12/19 04:17:41;;;;;;;132.77;34.10;;;;;;;0.57;76.65;99886.87;2260306;79;21102;-77
2020/12/19 04:20:42;;;;;;;90.80;36.30;;;;;;;0.55;76.62;99884.59;2260137;79;21383;-78
2020/12/19 04:23:43;;;;;;;100.70;39.83;;;;;;;0.55;76.83;99885.48;2260417;79;21187;-78
2020/12/19 04:26:44;;;;;;;106.37;41.50;;;;;;;0.61;76.84;99882.04;2259736;79;21176;-77
2020/12/19 04:29:45;;;;;;;98.30;39.97;;;;;;;0.66;76.86;99879.78;2258204;79;21113;-77
2020/12/19 04:32:46;;;;;;;116.37;36.67;;;;;;;0.69;76.83;99873.95;2259001;79;21772;-78
2020/12/19 04:35:47;;;;;;;87.00;32.33;;;;;;;0.68;76.58;99866.64;2259011;79;21130;-77
2020/12/19 04:38:48;;;;;;;90.40;33.73;;;;;;;0.63;76.58;99863.77;2258699;79;21248;-77
2020/12/19 04:41:49;;;;;;;76.93;33.03;;;;;;;0.58;76.54;99865.13;2256986;79;21244;-79
2020/12/19 04:44:50;;;;;;;73.67;29.87;;;;;;;0.55;76.77;99862.36;2258223;79;21387;-77
2020/12/19 04:47:51;;;;;;;84.43;33.17;;;;;;;0.55;76.47;99866.21;2256805;79;21133;-78
2020/12/19 04:50:53;;;;;;;102.50;34.57;;;;;;;0.53;76.73;99865.61;2256501;79;21534;-79
2020/12/19 04:53:54;;;;;;;76.67;34.40;;;;;;;0.55;76.80;99873.03;2256073;79;21110;-78
2020/12/19 04:56:55;;;;;;;77.00;31.97;;;;;;;0.51;76.39;99879.64;2255940;79;21284;-78
2020/12/19 04:59:56;;;;;;;109.80;32.07;;;;;;;0.43;76.37;99879.52;2256335;79;21518;-79
2020/12/19 05:02:57;;;;;;;75.37;31.00;;;;;;;0.35;76.32;99875.93;2256723;79;21330;-78
2020/12/19 05:05:58;;;;;;;74.00;32.93;;;;;;;0.26;76.53;99877.08;2254068;79;21300;-78
2020/12/19 05:08:59;;;;;;;67.00;31.63;;;;;;;0.26;76.74;99878.37;2253991;79;21257;-77
2020/12/19 05:12:00;;;;;;;101.93;34.90;;;;;;;0.28;76.72;99880.64;2255162;79;21132;-78
2020/12/19 05:15:01;;;;;;;90.67;34.07;;;;;;;0.28;76.64;99878.08;2257641;79;21126;-78
2020/12/19 05:18:03;;;;;;;75.73;32.10;;;;;;;0.29;76.69;99884.11;2261331;79;21245;-78
2020/12/19 05:21:04;;;;;;;71.47;33.70;;;;;;;0.28;76.78;99892.20;2263449;79;21260;-77
2020/12/19 05:24:05;;;;;;;67.73;33.17;;;;;;;0.24;76.59;99900.88;2263847;79;22082;-78
2020/12/19 05:27:09;;;;;;;86.43;34.33;;;;;;;0.23;76.67;99899.09;2264516;79;21267;-79
2020/12/19 05:30:09;;;;;;;93.53;32.73;;;;;;;0.21;76.46;99908.37;2263627;79;22070;-80
2020/12/19 05:33:10;;;;;;;82.90;33.73;;;;;;;0.14;76.60;99907.44;2264166;79;21255;-78
2020/12/19 05:36:11;;;;;;;63.93;31.17;;;;;;;0.14;76.72;99904.88;2264904;79;21433;-78
2020/12/19 05:39:12;;;;;;;72.23;31.67;;;;;;;0.12;76.62;99908.63;2264326;79;21281;-79
2020/12/19 05:42:13;;;;;;;74.40;35.03;;;;;;;0.08;76.46;99905.34;2265409;79;21239;-78
2020/12/19 05:45:14;;;;;;;78.77;33.73;;;;;;;0.08;76.75;99910.88;2264734;79;21169;-80
2020/12/19 05:48:16;;;;;;;61.97;28.97;;;;;;;0.10;76.75;99909.30;2265349;79;21380;-78
2020/12/19 05:51:17;;;;;;;71.80;29.03;;;;;;;0.05;76.36;99911.94;2265968;79;21283;-80
2020/12/19 05:54:18;;;;;;;60.77;30.77;;;;;;;0.05;79.82;99906.41;2266272;79;21399;-78
2020/12/19 05:57:19;;;;;;;71.53;35.67;;;;;;;0.41;76.84;99898.18;2265091;79;21129;-78
2020/12/19 06:00:20;;;;;;;74.33;33.13;;;;;;;0.28;76.30;99905.05;2265114;78;21228;-78
2020/12/19 06:03:21;;;;;;;65.67;29.47;;;;;;;0.23;76.33;99903.84;2265461;79;21459;-79
2020/12/19 06:06:22;;;;;;;64.37;33.40;;;;;;;0.15;76.22;99904.09;2264238;79;21272;-78
2020/12/19 06:09:23;;;;;;;68.07;28.97;;;;;;;0.07;76.38;99903.95;2265627;79;21414;-77
2020/12/19 06:12:24;;;;;;;66.83;29.80;;;;;;;0.05;76.27;99907.70;2265231;79;21403;-78
2020/12/19 06:15:25;;;;;;;55.87;29.20;;;;;;;0.02;76.33;99901.45;2265143;79;21164;-79
2020/12/19 06:18:26;;;;;;;71.30;31.80;;;;;;;0.00;76.45;99898.78;2263446;79;21125;-79
2020/12/19 06:21:27;;;;;;;68.87;33.57;;;;;;;-0.02;76.41;99893.51;2265369;79;21113;-76
2020/12/19 06:24:28;;;;;;;81.23;38.13;;;;;;;-0.01;76.52;99890.16;2264990;79;21140;-79
2020/12/19 06:27:29;;;;;;;76.60;35.97;;;;;;;0.01;76.71;99894.15;2265414;79;21427;-79
2020/12/19 06:30:30;;;;;;;71.63;32.30;;;;;;;0.05;76.73;99902.95;2264653;79;21141;-79
2020/12/19 06:33:31;;;;;;;64.43;32.13;;;;;;;0.03;76.70;99899.00;2265302;79;21121;-78
2020/12/19 06:36:33;;;;;;;63.70;30.87;;;;;;;0.02;76.64;99901.06;2266254;79;21125;-79
2020/12/19 06:39:34;;;;;;;66.90;31.00;;;;;;;0.05;76.60;99901.28;2265164;79;21121;-79
2020/12/19 06:42:35;;;;;;;64.00;30.83;;;;;;;0.11;76.36;99897.85;2266364;79;21406;-78
2020/12/19 06:45:36;;;;;;;62.50;29.13;;;;;;;0.11;76.39;99897.85;2265843;79;21267;-79
2020/12/19 06:48:38;;;;;;;65.23;29.87;;;;;;;0.12;76.30;99902.59;2266353;79;21255;-78
2020/12/19 06:51:39;;;;;;;65.47;33.00;;;;;;;0.08;76.27;99905.73;2265909;79;22051;-79
2020/12/19 06:54:41;;;;;;;62.77;32.43;;;;;;;0.12;76.41;99901.31;2266130;79;21355;-79
2020/12/19 06:57:42;;;;;;;68.80;31.17;;;;;;;0.15;76.37;99902.41;2264735;79;21426;-79
2020/12/19 07:00:43;;;;;;;62.23;28.57;;;;;;;0.15;76.30;99903.70;2264721;79;21121;-80
2020/12/19 07:03:44;;;;;;;67.43;32.80;;;;;;;0.15;76.24;99897.67;2266170;79;21237;-79
2020/12/19 07:06:45;;;;;;;69.13;31.87;;;;;;;0.14;76.29;99908.33;2265948;79;21430;-79
2020/12/19 07:09:46;;;;;;;68.30;31.60;;;;;;;0.15;76.22;99908.83;2265387;79;21094;-78
2020/12/19 07:12:47;;;;;;;66.37;30.80;;;;;;;0.17;76.19;99911.12;2265491;79;21150;-78
2020/12/19 07:15:48;;;;;;;74.40;35.10;;;;;;;0.19;76.17;99907.38;2263277;79;21149;-79
2020/12/19 07:18:49;;;;;;;58.60;30.70;;;;;;;0.21;76.05;99903.23;2259381;79;21137;-79
2020/12/19 07:21:50;;;;;;;68.83;34.93;;;;;;;0.14;76.06;99910.02;2259716;79;21405;-79
2020/12/19 07:24:51;;;;;;;57.47;29.00;;;;;;;0.17;76.31;99914.08;2259177;79;21117;-79
2020/12/19 07:27:52;;;;;;;66.53;31.80;;;;;;;0.20;76.24;99917.75;2258406;79;21129;-80
2020/12/19 07:30:54;;;;;;;57.80;26.77;;;;;;;0.16;75.97;99911.91;2258512;79;21870;-79
2020/12/19 07:33:55;;;;;;;58.57;29.90;;;;;;;0.17;75.80;99917.92;2257964;79;21122;-79
2020/12/19 07:36:56;;;;;;;58.03;28.33;;;;;;;0.06;75.71;99915.90;2258819;79;21129;-79
2020/12/19 07:39:57;;;;;;;64.13;32.23;;;;;;;0.03;75.67;99914.80;2258254;79;21118;-79
2020/12/19 07:42:58;;;;;;;59.23;31.33;;;;;;;0.02;76.00;99913.90;2257942;79;21406;-79
2020/12/19 07:45:59;;;;;;;56.00;27.77;;;;;;;0.08;75.99;99913.44;2257296;79;21288;-79
2020/12/19 07:49:00;;;;;;;53.77;28.83;;;;;;;0.10;75.69;99908.02;2258743;79;21410;-78
2020/12/19 07:52:01;;;;;;;52.87;25.20;;;;;;;0.13;75.94;99917.22;2257747;79;21130;-78
2020/12/19 07:55:02;;;;;;;45.93;25.63;;;;;;;0.14;75.65;99915.15;2257942;79;21125;-78
2020/12/19 07:58:04;;;;;;;60.83;31.87;;;;;;;0.12;75.64;99918.00;2257920;79;21368;-79
2020/12/19 08:01:05;;;;;;;60.60;28.57;;;;;;;0.15;75.73;99920.39;2255721;79;21083;-79
2020/12/19 08:04:06;;;;;;;70.77;32.60;;;;;;;0.17;75.54;99914.08;2257300;79;21485;-79
2020/12/19 08:07:07;;;;;;;61.23;27.23;;;;;;;0.11;75.49;99914.55;2255893;79;21284;-79
2020/12/19 08:10:08;;;;;;;57.67;29.17;;;;;;;0.08;75.57;99916.89;2255821;79;21578;-79
2020/12/19 08:13:09;;;;;;;52.57;28.27;;;;;;;0.08;75.68;99911.77;2258510;79;21086;-79
2020/12/19 08:16:12;;;;;;;55.53;28.23;;;;;;;0.10;75.73;99911.87;2261182;79;21151;-79
2020/12/19 08:19:13;;;;;;;64.50;31.40;;;;;;;0.13;75.81;99910.80;2265647;79;21137;-77
2020/12/19 08:22:14;;;;;;;60.93;30.23;;;;;;;0.10;75.80;99911.47;2263566;79;21403;-79
2020/12/19 08:25:16;;;;;;;64.33;30.40;;;;;;;0.15;75.95;99910.52;2263435;79;21327;-79
2020/12/19 08:28:17;;;;;;;69.50;32.50;;;;;;;0.16;75.88;99916.14;2262582;79;21248;-79
2020/12/19 08:31:18;;;;;;;61.93;30.80;;;;;;;0.25;76.01;99916.78;2264989;79;21240;-79
2020/12/19 08:34:19;;;;;;;64.53;33.47;;;;;;;0.34;75.97;99914.84;2265086;79;21518;-79
2020/12/19 08:37:20;;;;;;;65.00;32.77;;;;;;;0.40;75.99;99914.38;2265695;79;21149;-81
2020/12/19 08:40:21;;;;;;;68.70;31.63;;;;;;;0.44;75.83;99915.08;2266298;79;21129;-79
2020/12/19 08:43:22;;;;;;;57.17;29.37;;;;;;;0.45;75.73;99907.48;2265808;79;21114;-79
2020/12/19 08:46:23;;;;;;;74.17;35.23;;;;;;;0.49;75.81;99909.47;2265102;79;21141;-78
2020/12/19 08:49:24;;;;;;;65.50;32.00;;;;;;;0.52;75.81;99910.97;2266302;79;21129;-79
2020/12/19 08:52:25;;;;;;;71.07;37.40;;;;;;;0.64;76.00;99910.52;2266461;79;21130;-79
2020/12/19 08:55:26;;;;;;;66.30;35.10;;;;;;;0.75;75.83;99916.77;2265820;79;21118;-79
2020/12/19 08:58:27;;;;;;;70.90;34.90;;;;;;;0.83;75.60;99912.64;2265937;79;21113;-79
2020/12/19 09:01:29;;;;;;;71.27;38.00;;;;;;;0.86;75.40;99920.55;2266423;79;21389;-78
2020/12/19 09:04:30;;;;;;;68.83;37.83;;;;;;;0.94;75.40;99921.98;2264459;79;21106;-79
2020/12/19 09:07:31;;;;;;;70.90;37.43;;;;;;;0.97;75.13;99916.55;2264715;79;21219;-79
2020/12/19 09:10:32;;;;;;;83.50;43.10;;;;;;;1.04;75.20;99918.34;2266305;79;21263;-78
2020/12/19 09:13:33;;;;;;;76.07;39.47;;;;;;;1.11;75.26;99915.78;2265943;79;21118;-78
2020/12/19 09:16:34;;;;;;;68.67;38.33;;;;;;;1.17;75.20;99917.47;2262456;79;21169;-79
2020/12/19 09:19:35;;;;;;;73.33;38.67;;;;;;;1.23;75.13;99912.73;2259049;79;21403;-78
2020/12/19 09:22:36;;;;;;;66.03;33.43;;;;;;;1.34;75.01;99909.17;2258792;79;21228;-78
2020/12/19 09:25:37;;;;;;;65.70;35.07;;;;;;;1.43;74.35;99915.30;2257921;79;21177;-79
2020/12/19 09:28:39;;;;;;;91.90;49.43;;;;;;;1.43;74.41;99912.73;2258376;79;21126;-78
2020/12/19 09:31:40;;;;;;;81.70;43.73;;;;;;;1.47;74.53;99909.56;2257863;79;21275;-78
2020/12/19 09:34:41;;;;;;;75.27;37.93;;;;;;;1.59;74.40;99915.50;2256507;79;21126;-79
2020/12/19 09:37:44;;;;;;;67.93;36.07;;;;;;;1.65;74.33;99909.45;2259357;79;21106;-79
2020/12/19 09:40:45;;;;;;;76.37;35.97;;;;;;;1.68;74.04;99910.94;2257924;79;21283;-78
2020/12/19 09:43:46;;;;;;;71.63;38.57;;;;;;;1.72;73.89;99910.34;2258660;79;21179;-78
2020/12/19 09:46:47;;;;;;;74.57;37.23;;;;;;;1.73;73.83;99908.26;2258084;79;22068;-78
2020/12/19 09:49:48;;;;;;;80.17;43.03;;;;;;;1.74;73.84;99910.07;2256650;79;21137;-78
2020/12/19 09:52:50;;;;;;;91.53;42.87;;;;;;;1.71;73.93;99901.23;2257718;79;22134;-78
2020/12/19 09:55:51;;;;;;;88.83;43.70;;;;;;;1.74;73.95;99904.92;2255863;79;21248;-79
2020/12/19 09:58:52;;;;;;;62.57;32.47;;;;;;;1.77;73.90;99911.55;2255518;79;21121;-78
2020/12/19 10:01:53;;;;;;;70.40;35.43;;;;;;;1.78;73.37;99903.43;2258183;79;21110;-78
2020/12/19 10:04:54;;;;;;;71.57;38.93;;;;;;;1.75;73.79;99906.70;2259523;79;21351;-78
2020/12/19 10:07:55;;;;;;;75.10;38.63;;;;;;;1.81;73.68;99904.52;2257334;79;21118;-80
2020/12/19 10:10:57;;;;;;;83.67;43.30;;;;;;;1.88;73.78;99904.11;2259888;79;21216;-78
2020/12/19 10:13:58;;;;;;;86.17;44.60;;;;;;;1.94;73.69;99901.42;2258810;79;21383;-78
2020/12/19 10:16:59;;;;;;;72.70;39.30;;;;;;;1.95;73.32;99898.94;2263677;79;21169;-78
2020/12/19 10:20:03;;;;;;;72.13;37.47;;;;;;;1.95;73.35;99900.63;2265524;79;21446;-78
2020/12/19 10:23:04;;;;;;;71.40;38.00;;;;;;;1.90;73.01;99897.37;2263766;79;21643;-78
2020/12/19 10:26:05;;;;;;;62.80;34.80;;;;;;;1.85;73.31;99890.16;2264428;79;21299;-78
2020/12/19 10:29:06;;;;;;;77.53;43.00;;;;;;;1.83;73.31;99888.77;2265727;79;21149;-78
2020/12/19 10:32:07;;;;;;;66.83;38.80;;;;;;;1.86;73.25;99887.67;2264414;79;21466;-79
2020/12/19 10:35:08;;;;;;;52.30;29.03;;;;;;;1.94;73.08;99881.71;2264691;79;21138;-79
2020/12/19 10:38:09;;;;;;;75.53;36.73;;;;;;;2.00;72.75;99885.06;2263351;79;21442;-79
2020/12/19 10:41:10;;;;;;;67.30;38.57;;;;;;;1.95;72.94;99882.60;2263074;79;21160;-78
2020/12/19 10:44:11;;;;;;;81.77;41.60;;;;;;;1.89;72.76;99877.56;2264202;79;21249;-79
2020/12/19 10:47:12;;;;;;;96.70;38.10;;;;;;;1.93;73.20;99881.62;2265287;79;21196;-77
2020/12/19 10:50:17;;;;;;;69.10;36.97;;;;;;;2.02;73.14;99877.03;2264264;79;21145;-77
2020/12/19 10:53:17;;;;;;;66.07;33.70;;;;;;;2.01;72.75;99874.86;2265783;79;21137;-78
2020/12/19 10:56:18;;;;;;;65.93;34.87;;;;;;;2.03;72.60;99869.80;2265917;79;21134;-79
2020/12/19 10:59:19;;;;;;;65.13;36.37;;;;;;;1.99;72.43;99870.41;2265614;79;21126;-79
2020/12/19 11:02:20;;;;;;;62.87;33.40;;;;;;;1.99;72.41;99863.97;2264661;79;21118;-79
2020/12/19 11:05:22;;;;;;;66.57;35.73;;;;;;;1.97;72.54;99856.55;2262669;79;22043;-79
2020/12/19 11:08:28;;;;;;;67.80;36.13;;;;;;;1.96;72.61;99859.52;2262235;79;21395;-78
2020/12/19 11:11:29;;;;;;;68.83;34.43;;;;;;;1.98;72.83;99849.31;2264562;79;21122;-79
2020/12/19 11:14:32;;;;;;;58.20;32.50;;;;;;;2.01;72.78;99846.93;2265045;79;21432;-79
2020/12/19 11:17:34;;;;;;;66.57;35.50;;;;;;;1.95;72.37;99846.55;2264982;79;21296;-79
2020/12/19 11:20:35;;;;;;;67.10;31.23;;;;;;;1.88;72.92;99837.56;2266478;79;21113;-79
2020/12/19 11:23:36;;;;;;;62.20;32.47;;;;;;;1.88;72.92;99837.56;2267343;79;21395;-80
2020/12/19 11:26:37;;;;;;;69.50;33.77;;;;;;;1.93;73.06;99841.70;2266949;79;21110;-80
2020/12/19 11:29:38;;;;;;;76.73;31.13;;;;;;;2.00;73.17;99837.42;2266454;79;21078;-80
2020/12/19 11:32:41;;;;;;;74.40;29.73;;;;;;;2.09;73.22;99832.44;2266277;79;21106;-79
2020/12/19 11:35:42;;;;;;;86.27;31.80;;;;;;;2.17;73.21;99834.19;2267569;79;21113;-79
2020/12/19 11:38:43;;;;;;;62.90;30.37;;;;;;;2.17;73.11;99829.03;2265904;79;21141;-80
2020/12/19 11:41:44;;;;;;;73.10;36.53;;;;;;;2.21;73.03;99828.02;2265766;79;22141;-79
2020/12/19 11:44:45;;;;;;;65.17;31.33;;;;;;;2.26;73.24;99825.72;2264962;79;22133;-80
2020/12/19 11:47:46;;;;;;;74.83;33.60;;;;;;;2.33;73.03;99821.42;2266393;79;21141;-81
2020/12/19 11:50:48;;;;;;;70.40;31.17;;;;;;;2.34;73.14;99823.20;2265462;79;21121;-80
2020/12/19 11:53:49;;;;;;;76.93;30.63;;;;;;;2.29;73.00;99818.17;2264914;79;21417;-80
2020/12/19 11:56:50;;;;;;;75.57;29.90;;;;;;;2.26;73.03;99820.57;2265822;79;21395;-79
2020/12/19 11:59:52;;;;;;;49.03;21.83;;;;;;;2.21;73.21;99819.41;2264519;79;21109;-79
2020/12/19 12:02:53;;;;;;;60.47;28.93;;;;;;;2.20;73.34;99818.91;2266759;79;21130;-80
2020/12/19 12:05:54;;;;;;;64.43;29.60;;;;;;;2.15;73.46;99814.77;2263214;79;21794;-79
2020/12/19 12:08:55;;;;;;;54.83;27.27;;;;;;;2.22;73.78;99816.03;2265434;79;21121;-79
2020/12/19 12:11:56;;;;;;;69.83;31.67;;;;;;;2.26;73.73;99817.99;2265792;79;21130;-79
2020/12/19 12:14:57;;;;;;;73.97;31.43;;;;;;;2.26;73.74;99818.39;2265335;79;21255;-79
2020/12/19 12:17:58;;;;;;;73.10;29.27;;;;;;;2.30;73.96;99816.09;2260331;79;21134;-79
2020/12/19 12:20:59;;;;;;;59.83;27.13;;;;;;;2.31;73.79;99810.53;2258896;79;21730;-80
2020/12/19 12:24:00;;;;;;;58.67;27.77;;;;;;;2.29;73.85;99806.58;2260470;79;21117;-81
2020/12/19 12:27:01;;;;;;;47.77;25.70;;;;;;;2.28;73.82;99806.09;2260403;79;21153;-79
2020/12/19 12:30:02;;;;;;;62.43;27.50;;;;;;;2.33;73.97;99800.81;2259325;79;21122;-80
2020/12/19 12:33:04;;;;;;;65.97;28.73;;;;;;;2.29;73.92;99806.58;2258585;79;21451;-80
2020/12/19 12:36:05;;;;;;;61.50;27.83;;;;;;;2.31;74.10;99807.56;2259099;79;21122;-78
2020/12/19 12:39:06;;;;;;;57.57;29.07;;;;;;;2.30;74.08;99806.19;2259347;79;21070;-80
2020/12/19 12:42:07;;;;;;;71.33;30.33;;;;;;;2.29;74.19;99805.30;2258865;79;21252;-80
2020/12/19 12:45:08;;;;;;;66.07;28.67;;;;;;;2.29;74.18;99806.98;2260148;79;21448;-78
2020/12/19 12:48:10;;;;;;;64.93;31.50;;;;;;;2.17;74.08;99802.87;2260862;79;21381;-78
2020/12/19 12:51:11;;;;;;;59.90;27.73;;;;;;;2.20;74.41;99798.30;2260220;79;21129;-81
2020/12/19 12:54:13;;;;;;;57.70;28.17;;;;;;;2.21;74.25;99797.51;2259288;79;21202;-80
2020/12/19 12:57:14;;;;;;;63.27;30.20;;;;;;;2.16;74.35;99793.38;2258616;79;21287;-79
2020/12/19 13:00:15;;;;;;;66.43;29.60;;;;;;;2.13;74.58;99800.03;2259653;79;21240;-80
2020/12/19 13:03:16;;;;;;;72.03;28.70;;;;;;;2.13;74.61;99801.31;2258255;79;21260;-78
2020/12/19 13:06:17;;;;;;;62.83;29.93;;;;;;;2.11;74.76;99796.47;2257320;79;21280;-79
2020/12/19 13:09:19;;;;;;;72.00;31.17;;;;;;;2.10;74.83;99796.87;2257748;79;21237;-80
2020/12/19 13:12:20;;;;;;;75.77;33.60;;;;;;;2.18;74.89;99801.19;2258053;79;21399;-79
2020/12/19 13:15:21;;;;;;;81.70;33.57;;;;;;;2.22;74.75;99804.44;2259609;79;21114;-80
2020/12/19 13:18:22;;;;;;;85.83;34.10;;;;;;;2.19;74.62;99806.83;2260277;79;21102;-81
2020/12/19 13:21:23;;;;;;;90.73;33.23;;;;;;;2.10;74.57;99807.17;2261280;79;21114;-79
2020/12/19 13:24:24;;;;;;;85.37;31.87;;;;;;;2.05;74.70;99816.70;2260867;79;21114;-80
2020/12/19 13:27:25;;;;;;;102.83;31.77;;;;;;;2.02;74.93;99816.52;2260903;79;21231;-80
2020/12/19 13:30:26;;;;;;;71.87;29.80;;;;;;;2.02;74.92;99813.55;2260671;79;21169;-80
2020/12/19 13:33:28;;;;;;;60.90;30.43;;;;;;;2.02;74.98;99810.97;2259629;79;21109;-79
2020/12/19 13:36:32;;;;;;;59.17;30.60;;;;;;;2.01;74.99;99810.87;2259611;79;21110;-80
2020/12/19 13:39:32;;;;;;;77.03;31.37;;;;;;;2.02;75.00;99815.23;2259571;79;21196;-80
2020/12/19 13:42:33;;;;;;;81.97;33.43;;;;;;;2.03;75.13;99811.46;2259816;79;21462;-80
2020/12/19 13:45:34;;;;;;;75.00;31.07;;;;;;;2.06;75.20;99810.75;2260770;79;21139;-80
2020/12/19 13:48:36;;;;;;;77.43;31.37;;;;;;;2.08;75.19;99810.45;2260900;79;21126;-80
2020/12/19 13:51:41;;;;;;;73.73;30.47;;;;;;;2.06;75.19;99815.51;2260575;79;21371;-80
2020/12/19 13:54:43;;;;;;;74.33;29.77;;;;;;;2.03;75.20;99820.88;2260258;79;21471;-80
2020/12/19 13:57:44;;;;;;;66.60;31.33;;;;;;;1.96;75.07;99826.05;2258529;79;21102;-80
2020/12/19 14:00:45;;;;;;;67.60;29.63;;;;;;;1.90;75.25;99821.41;2260280;79;21137;-81